createdAt,value
2018-07-26T00:00:01.525Z,69.00
2018-07-26T00:01:05.608Z,68.40
2018-07-26T00:02:08.961Z,68.50
2018-07-26T00:03:12.356Z,68.50
2018-07-26T00:04:15.704Z,68.80
2018-07-26T00:05:19.229Z,68.80
2018-07-26T00:06:22.631Z,68.90
2018-07-26T00:07:26.095Z,69.10
2018-07-26T00:08:29.483Z,69.20
2018-07-26T00:09:32.849Z,69.30
2018-07-26T00:10:36.499Z,69.30
2018-07-26T00:11:40.416Z,69.30
2018-07-26T00:12:44.058Z,69.30
2018-07-26T00:13:47.522Z,69.50
2018-07-26T00:14:50.913Z,69.40
2018-07-26T00:15:54.335Z,69.50
2018-07-26T00:16:57.650Z,69.50
2018-07-26T00:18:01.071Z,69.40
2018-07-26T00:19:04.507Z,69.40
2018-07-26T00:20:07.871Z,69.30
2018-07-26T00:21:11.228Z,70.10
2018-07-26T00:22:14.718Z,69.30
2018-07-26T00:23:18.061Z,69.30
2018-07-26T00:24:21.488Z,69.30
2018-07-26T00:25:24.824Z,69.20
2018-07-26T00:26:28.260Z,69.20
2018-07-26T00:27:31.690Z,68.80
2018-07-26T00:29:38.422Z,69.80
2018-07-26T00:30:41.780Z,69.10
2018-07-26T00:31:45.128Z,69.20
2018-07-26T00:32:48.823Z,69.00
2018-07-26T00:33:52.221Z,69.20
2018-07-26T00:34:55.857Z,68.90
2018-07-26T00:35:59.297Z,68.90
2018-07-26T00:37:02.783Z,68.70
2018-07-26T00:38:06.427Z,68.80
2018-07-26T00:39:11.165Z,68.80
2018-07-26T00:40:15.116Z,68.90
2018-07-26T00:41:18.661Z,68.80
2018-07-26T00:42:22.154Z,68.80
2018-07-26T00:43:25.557Z,68.80
2018-07-26T00:44:29.144Z,68.90
2018-07-26T00:45:32.837Z,69.00
2018-07-26T00:47:39.620Z,69.60
2018-07-26T00:48:43.062Z,69.30
2018-07-26T00:49:46.483Z,69.30
2018-07-26T00:50:49.971Z,69.40
2018-07-26T00:51:53.311Z,69.80
2018-07-26T00:52:56.630Z,69.60
2018-07-26T00:54:00.129Z,69.80
2018-07-26T00:55:03.924Z,70.00
2018-07-26T00:56:07.312Z,70.10
2018-07-26T00:57:10.688Z,70.70
2018-07-26T00:58:14.063Z,70.00
2018-07-26T00:59:17.359Z,69.90
2018-07-26T01:00:20.754Z,69.90
2018-07-26T01:01:24.785Z,70.40
2018-07-26T01:02:28.299Z,69.80
2018-07-26T01:03:31.702Z,69.80
2018-07-26T01:04:35.140Z,69.70
2018-07-26T01:05:38.637Z,69.70
2018-07-26T01:06:42.111Z,69.70
2018-07-26T01:07:45.552Z,69.70
2018-07-26T01:08:49.120Z,69.80
2018-07-26T01:09:52.606Z,69.80
2018-07-26T01:10:56.036Z,69.80
2018-07-26T01:11:59.532Z,69.80
2018-07-26T01:13:03.008Z,69.90
2018-07-26T01:14:06.771Z,69.80
2018-07-26T01:15:10.238Z,69.80
2018-07-26T01:16:13.829Z,69.80
2018-07-26T01:17:17.628Z,69.80
2018-07-26T01:18:21.167Z,69.70
2018-07-26T01:19:24.707Z,69.70
2018-07-26T01:20:28.484Z,69.70
2018-07-26T01:21:31.880Z,69.80
2018-07-26T01:22:35.419Z,69.80
2018-07-26T01:23:39.202Z,69.80
2018-07-26T01:24:42.583Z,70.40
2018-07-26T01:25:45.916Z,69.70
2018-07-26T01:26:49.328Z,69.60
2018-07-26T01:27:52.754Z,69.70
2018-07-26T01:28:56.301Z,69.60
2018-07-26T01:29:59.687Z,69.60
2018-07-26T01:31:03.201Z,69.60
2018-07-26T01:32:07.000Z,69.70
2018-07-26T01:33:10.413Z,69.70
2018-07-26T01:34:13.792Z,69.60
2018-07-26T01:35:17.160Z,69.60
2018-07-26T01:36:20.580Z,70.30
2018-07-26T01:38:27.587Z,69.50
2018-07-26T01:39:30.992Z,69.50
2018-07-26T01:40:34.319Z,69.40
2018-07-26T01:41:37.723Z,69.30
2018-07-26T01:42:58.415Z,69.40
2018-07-26T01:44:14.579Z,69.40
2018-07-26T01:45:18.096Z,69.50
2018-07-26T01:46:22.927Z,70.00
2018-07-26T01:47:26.383Z,69.50
2018-07-26T01:48:29.774Z,69.50
2018-07-26T01:49:33.313Z,69.60
2018-07-26T01:50:36.634Z,69.50
2018-07-26T01:52:43.308Z,69.50
2018-07-26T01:53:46.795Z,69.50
2018-07-26T01:54:50.364Z,69.50
2018-07-26T01:55:53.852Z,69.40
2018-07-26T01:56:57.442Z,69.40
2018-07-26T01:58:00.855Z,69.20
2018-07-26T01:59:04.286Z,69.20
2018-07-26T02:00:07.724Z,69.20
2018-07-26T02:01:12.142Z,69.20
2018-07-26T02:02:15.725Z,69.20
2018-07-26T02:03:19.173Z,69.10
2018-07-26T02:04:22.627Z,69.10
2018-07-26T02:05:26.091Z,69.00
2018-07-26T02:06:29.723Z,68.90
2018-07-26T02:07:33.219Z,68.80
2018-07-26T02:08:36.660Z,68.90
2018-07-26T02:09:40.123Z,68.80
2018-07-26T02:10:43.564Z,68.80
2018-07-26T02:11:47.124Z,68.90
2018-07-26T02:13:53.875Z,68.70
2018-07-26T02:14:57.311Z,68.80
2018-07-26T02:16:00.798Z,69.30
2018-07-26T02:17:04.259Z,68.50
2018-07-26T02:18:07.949Z,68.60
2018-07-26T02:19:11.278Z,68.40
2018-07-26T02:20:14.874Z,68.40
2018-07-26T02:21:18.341Z,68.40
2018-07-26T02:22:21.805Z,68.40
2018-07-26T02:24:29.207Z,68.40
2018-07-26T02:25:32.797Z,68.40
2018-07-26T02:26:36.270Z,68.30
2018-07-26T02:27:39.657Z,68.30
2018-07-26T02:29:47.164Z,68.30
2018-07-26T02:30:50.734Z,68.30
2018-07-26T02:31:54.136Z,68.30
2018-07-26T02:32:57.562Z,68.30
2018-07-26T02:34:00.973Z,68.30
2018-07-26T02:35:04.486Z,68.30
2018-07-26T02:36:07.835Z,68.40
2018-07-26T02:37:11.225Z,68.50
2018-07-26T02:38:14.720Z,69.20
2018-07-26T02:39:18.089Z,68.90
2018-07-26T02:40:21.631Z,69.30
2018-07-26T02:41:25.178Z,69.50
2018-07-26T02:42:28.572Z,69.60
2018-07-26T02:43:32.043Z,69.60
2018-07-26T02:44:35.400Z,69.70
2018-07-26T02:45:38.805Z,69.80
2018-07-26T02:46:42.187Z,69.80
2018-07-26T02:47:45.572Z,70.00
2018-07-26T02:48:49.095Z,70.10
2018-07-26T02:49:52.453Z,70.10
2018-07-26T02:50:55.820Z,70.20
2018-07-26T02:51:59.206Z,70.20
2018-07-26T02:53:02.743Z,70.40
2018-07-26T02:54:06.471Z,70.50
2018-07-26T02:55:09.838Z,70.60
2018-07-26T02:56:13.339Z,70.60
2018-07-26T02:57:17.004Z,70.80
2018-07-26T02:58:20.374Z,70.90
2018-07-26T02:59:23.724Z,70.90
2018-07-26T03:00:27.455Z,71.00
2018-07-26T03:01:30.860Z,71.00
2018-07-26T03:02:34.331Z,71.10
2018-07-26T03:03:37.685Z,71.20
2018-07-26T03:04:41.088Z,71.20
2018-07-26T03:06:47.689Z,71.80
2018-07-26T03:07:51.163Z,71.20
2018-07-26T03:08:54.599Z,71.30
2018-07-26T03:09:57.976Z,71.30
2018-07-26T03:11:01.333Z,71.30
2018-07-26T03:12:04.714Z,71.30
2018-07-26T03:14:11.274Z,71.10
2018-07-26T03:15:14.686Z,71.10
2018-07-26T03:16:18.151Z,71.10
2018-07-26T03:17:21.532Z,71.20
2018-07-26T03:19:28.198Z,71.30
2018-07-26T03:20:31.729Z,71.20
2018-07-26T03:21:35.050Z,71.50
2018-07-26T03:22:38.506Z,71.40
2018-07-26T03:23:41.917Z,71.40
2018-07-26T03:24:45.425Z,71.50
2018-07-26T03:25:49.238Z,71.60
2018-07-26T03:27:55.981Z,71.60
2018-07-26T03:28:59.449Z,71.60
2018-07-26T03:30:03.199Z,71.60
2018-07-26T03:31:07.507Z,71.70
2018-07-26T03:32:11.039Z,71.70
2018-07-26T03:33:14.482Z,71.80
2018-07-26T03:34:17.914Z,71.80
2018-07-26T03:35:21.480Z,71.80
2018-07-26T03:36:25.255Z,71.80
2018-07-26T03:37:28.615Z,71.90
2018-07-26T03:38:32.219Z,71.80
2018-07-26T03:39:35.768Z,71.80
2018-07-26T03:40:39.331Z,71.70
2018-07-26T03:41:42.663Z,71.70
2018-07-26T03:42:46.153Z,71.60
2018-07-26T03:43:49.518Z,71.60
2018-07-26T03:44:52.955Z,71.50
2018-07-26T03:45:56.646Z,71.50
2018-07-26T03:47:00.243Z,71.50
2018-07-26T03:48:03.780Z,71.40
2018-07-26T03:49:07.164Z,71.40
2018-07-26T03:50:10.859Z,71.30
2018-07-26T03:51:14.287Z,72.00
2018-07-26T03:52:17.752Z,71.30
2018-07-26T03:53:21.171Z,71.40
2018-07-26T03:54:25.017Z,71.30
2018-07-26T03:55:28.519Z,71.30
2018-07-26T03:56:32.455Z,71.30
2018-07-26T03:57:36.043Z,71.30
2018-07-26T03:58:39.435Z,71.30
2018-07-26T03:59:42.725Z,71.30
2018-07-26T04:00:46.110Z,71.40
2018-07-26T04:01:49.533Z,71.30
2018-07-26T04:02:52.942Z,71.30
2018-07-26T04:03:56.424Z,71.30
2018-07-26T04:04:59.911Z,71.40
2018-07-26T04:06:03.462Z,71.50
2018-07-26T04:07:06.859Z,71.60
2018-07-26T04:08:10.317Z,71.70
2018-07-26T04:09:14.870Z,71.80
2018-07-26T04:10:18.318Z,71.80
2018-07-26T04:11:21.768Z,71.90
2018-07-26T04:13:28.410Z,71.80
2018-07-26T04:14:32.165Z,71.60
2018-07-26T04:15:35.564Z,71.30
2018-07-26T04:16:38.950Z,71.10
2018-07-26T04:17:42.431Z,70.90
2018-07-26T04:18:45.853Z,70.60
2018-07-26T04:19:49.167Z,70.40
2018-07-26T04:20:52.521Z,70.10
2018-07-26T04:21:55.849Z,69.80
2018-07-26T04:22:59.236Z,69.50
2018-07-26T04:24:02.580Z,69.00
2018-07-26T04:25:05.983Z,68.60
2018-07-26T04:27:12.672Z,67.70
2018-07-26T04:28:16.047Z,67.20
2018-07-26T04:29:19.640Z,67.00
2018-07-26T04:30:23.327Z,66.40
2018-07-26T04:31:26.734Z,66.10
2018-07-26T04:32:30.083Z,65.70
2018-07-26T04:33:33.463Z,65.40
2018-07-26T04:35:39.918Z,64.70
2018-07-26T04:36:43.316Z,64.30
2018-07-26T04:37:46.684Z,63.90
2018-07-26T04:38:50.075Z,63.60
2018-07-26T04:39:53.426Z,63.20
2018-07-26T04:40:56.776Z,62.90
2018-07-26T04:43:03.456Z,62.30
2018-07-26T04:44:06.889Z,62.00
2018-07-26T04:45:10.262Z,61.60
2018-07-26T04:46:13.593Z,61.20
2018-07-26T04:47:17.103Z,60.70
2018-07-26T04:48:20.448Z,60.60
2018-07-26T04:49:23.942Z,60.30
2018-07-26T04:50:27.439Z,60.20
2018-07-26T04:51:30.824Z,59.90
2018-07-26T04:52:34.321Z,59.90
2018-07-26T04:53:37.661Z,59.80
2018-07-26T04:54:41.177Z,59.70
2018-07-26T04:55:44.412Z,59.60
2018-07-26T04:56:47.887Z,59.50
2018-07-26T04:57:51.588Z,60.00
2018-07-26T04:58:55.052Z,59.50
2018-07-26T04:59:58.436Z,59.60
2018-07-26T05:01:01.847Z,59.60
2018-07-26T05:02:05.390Z,59.80
2018-07-26T05:03:08.798Z,59.90
2018-07-26T05:04:12.164Z,59.90
2018-07-26T05:05:15.521Z,60.10
2018-07-26T05:06:18.954Z,60.10
2018-07-26T05:07:22.284Z,60.20
2018-07-26T05:08:25.727Z,60.30
2018-07-26T05:09:29.148Z,60.10
2018-07-26T05:10:32.967Z,60.00
2018-07-26T05:11:36.302Z,60.20
2018-07-26T05:12:39.641Z,60.30
2018-07-26T05:13:43.017Z,60.30
2018-07-26T05:14:46.450Z,60.30
2018-07-26T05:15:49.795Z,60.50
2018-07-26T05:16:53.159Z,60.70
2018-07-26T05:17:56.609Z,60.50
2018-07-26T05:18:59.993Z,60.80
2018-07-26T05:20:04.308Z,61.10
2018-07-26T05:21:07.826Z,61.10
2018-07-26T05:22:11.363Z,61.10
2018-07-26T05:23:14.773Z,61.20
2018-07-26T05:24:19.156Z,61.20
2018-07-26T05:25:22.681Z,61.00
2018-07-26T05:26:26.447Z,61.10
2018-07-26T05:29:36.994Z,61.10
2018-07-26T05:30:40.460Z,61.50
2018-07-26T05:31:43.982Z,61.50
2018-07-26T05:32:47.717Z,61.10
2018-07-26T05:33:51.182Z,60.90
2018-07-26T05:34:54.686Z,60.90
2018-07-26T05:35:58.930Z,62.10
2018-07-26T05:37:02.378Z,61.30
2018-07-26T05:38:05.798Z,61.10
2018-07-26T05:39:11.351Z,60.80
2018-07-26T05:40:14.987Z,60.30
2018-07-26T05:41:18.430Z,60.70
2018-07-26T05:42:22.042Z,60.70
2018-07-26T05:44:30.257Z,61.20
2018-07-26T05:45:33.888Z,60.50
2018-07-26T05:46:37.593Z,60.50
2018-07-26T05:47:41.315Z,60.50
2018-07-26T05:49:48.298Z,59.00
2018-07-26T05:51:54.940Z,59.40
2018-07-26T05:52:58.304Z,59.30
2018-07-26T05:54:01.613Z,59.00
2018-07-26T05:55:06.901Z,59.10
2018-07-26T05:56:10.219Z,59.50
2018-07-26T05:57:13.587Z,59.00
2018-07-26T05:58:17.261Z,58.50
2018-07-26T05:59:20.733Z,58.10
2018-07-26T06:00:24.287Z,58.00
2018-07-26T06:01:28.123Z,57.40
2018-07-26T06:02:31.638Z,57.80
2018-07-26T06:03:35.229Z,58.40
2018-07-26T06:04:38.971Z,57.60
2018-07-26T06:05:42.316Z,57.50
2018-07-26T06:06:45.692Z,57.00
2018-07-26T06:07:49.106Z,57.00
2018-07-26T06:08:52.907Z,57.00
2018-07-26T06:10:59.595Z,56.80
2018-07-26T06:13:06.780Z,56.50
2018-07-26T06:15:13.979Z,56.20
2018-07-26T06:16:17.492Z,56.20
2018-07-26T06:17:20.964Z,56.50
2018-07-26T06:18:24.444Z,56.50
2018-07-26T06:19:28.379Z,55.90
2018-07-26T06:20:31.957Z,55.50
2018-07-26T06:21:35.517Z,55.50
2018-07-26T06:22:39.768Z,55.30
2018-07-26T06:23:43.452Z,55.20
2018-07-26T06:24:47.035Z,55.20
2018-07-26T06:25:50.530Z,55.30
2018-07-26T06:26:54.126Z,54.70
2018-07-26T06:27:57.569Z,54.30
2018-07-26T06:29:00.938Z,54.30
2018-07-26T06:30:08.602Z,53.80
2018-07-26T06:31:12.217Z,54.00
2018-07-26T06:33:19.284Z,54.50
2018-07-26T06:35:26.584Z,54.90
2018-07-26T06:36:30.014Z,55.00
2018-07-26T06:37:33.506Z,54.00
2018-07-26T06:38:37.076Z,53.80
2018-07-26T06:39:40.690Z,53.70
2018-07-26T06:40:44.352Z,53.90
2018-07-26T06:41:47.678Z,53.40
2018-07-26T06:42:51.048Z,53.80
2018-07-26T06:43:54.476Z,53.60
2018-07-26T06:44:58.012Z,53.60
2018-07-26T06:46:01.515Z,53.90
2018-07-26T06:47:05.580Z,53.30
2018-07-26T06:48:09.061Z,53.20
2018-07-26T06:49:12.694Z,53.00
2018-07-26T06:50:16.392Z,53.30
2018-07-26T06:51:20.096Z,53.20
2018-07-26T06:52:23.588Z,52.50
2018-07-26T06:53:26.988Z,52.00
2018-07-26T06:54:31.073Z,51.70
2018-07-26T06:55:34.483Z,51.80
2018-07-26T06:56:37.851Z,51.90
2018-07-26T06:57:41.244Z,51.90
2018-07-26T06:58:44.766Z,51.60
2018-07-26T06:59:48.213Z,50.90
2018-07-26T07:00:52.042Z,50.90
2018-07-26T07:01:55.758Z,50.70
2018-07-26T07:02:59.235Z,50.50
2018-07-26T07:04:03.144Z,49.70
2018-07-26T07:05:07.538Z,49.30
2018-07-26T07:06:11.395Z,49.60
2018-07-26T07:07:14.878Z,49.90
2018-07-26T07:08:18.316Z,49.90
2018-07-26T07:09:21.762Z,49.70
2018-07-26T07:10:25.338Z,49.20
2018-07-26T07:11:28.876Z,48.90
2018-07-26T07:12:32.450Z,48.90
2018-07-26T07:13:36.039Z,49.20
2018-07-26T07:14:39.559Z,49.10
2018-07-26T07:15:43.114Z,49.50
2018-07-26T07:16:46.720Z,49.20
2018-07-26T07:17:50.391Z,48.70
2018-07-26T07:19:57.379Z,48.00
2018-07-26T07:21:00.957Z,48.40
2018-07-26T07:22:04.422Z,48.40
2018-07-26T07:23:08.136Z,48.40
2018-07-26T07:25:19.322Z,47.20
2018-07-26T07:27:25.959Z,46.70
2018-07-26T07:28:29.380Z,46.90
2018-07-26T07:29:32.843Z,47.40
2018-07-26T07:31:39.594Z,47.40
2018-07-26T07:32:43.026Z,47.60
2018-07-26T07:33:46.461Z,46.80
2018-07-26T07:34:49.797Z,46.90
2018-07-26T07:35:53.179Z,47.10
2018-07-26T07:36:56.572Z,46.00
2018-07-26T07:37:59.983Z,46.50
2018-07-26T07:39:06.027Z,46.40
2018-07-26T07:40:10.191Z,46.60
2018-07-26T07:41:13.763Z,46.70
2018-07-26T07:42:17.140Z,46.00
2018-07-26T07:43:20.536Z,45.90
2018-07-26T07:44:23.957Z,45.70
2018-07-26T07:45:27.330Z,45.20
2018-07-26T07:46:30.741Z,44.80
2018-07-26T07:47:34.073Z,44.60
2018-07-26T07:49:40.756Z,45.40
2018-07-26T07:50:44.372Z,44.70
2018-07-26T07:51:47.742Z,45.20
2018-07-26T07:52:51.574Z,44.80
2018-07-26T07:53:55.102Z,44.60
2018-07-26T07:54:58.745Z,44.30
2018-07-26T07:56:02.567Z,44.60
2018-07-26T07:57:06.659Z,44.30
2018-07-26T07:58:10.384Z,44.60
2018-07-26T07:59:13.946Z,44.50
2018-07-26T08:00:17.839Z,44.20
2018-07-26T08:01:21.415Z,44.00
2018-07-26T08:02:24.953Z,43.80
2018-07-26T08:03:28.288Z,43.60
2018-07-26T08:04:31.649Z,43.30
2018-07-26T08:05:35.119Z,43.70
2018-07-26T08:06:38.586Z,43.00
2018-07-26T08:07:42.814Z,43.00
2018-07-26T08:08:46.214Z,43.00
2018-07-26T08:09:49.610Z,43.40
2018-07-26T08:10:53.036Z,42.90
2018-07-26T08:11:56.382Z,42.70
2018-07-26T08:12:59.688Z,42.60
2018-07-26T08:14:03.376Z,42.60
2018-07-26T08:15:08.409Z,42.40
2018-07-26T08:16:11.769Z,42.60
2018-07-26T08:17:15.120Z,41.90
2018-07-26T08:18:18.481Z,41.00
2018-07-26T08:19:21.996Z,40.90
2018-07-26T08:20:25.449Z,41.20
2018-07-26T08:21:29.213Z,41.30
2018-07-26T08:23:35.872Z,42.00
2018-07-26T08:24:39.263Z,41.00
2018-07-26T08:25:42.820Z,41.20
2018-07-26T08:26:46.331Z,41.20
2018-07-26T08:27:49.998Z,41.30
2018-07-26T08:28:53.450Z,40.80
2018-07-26T08:29:56.995Z,40.60
2018-07-26T08:31:00.403Z,40.70
2018-07-26T08:32:04.378Z,40.60
2018-07-26T08:34:11.139Z,39.30
2018-07-26T08:35:14.496Z,38.90
2018-07-26T08:36:17.824Z,39.30
2018-07-26T08:38:24.945Z,39.90
2018-07-26T08:39:28.599Z,38.80
2018-07-26T08:40:31.997Z,39.30
2018-07-26T08:41:35.971Z,39.00
2018-07-26T08:42:39.593Z,38.80
2018-07-26T08:43:43.289Z,39.20
2018-07-26T08:44:46.838Z,38.50
2018-07-26T08:45:50.326Z,38.90
2018-07-26T08:46:53.941Z,38.10
2018-07-26T08:47:57.332Z,38.10
2018-07-26T08:49:00.731Z,39.00
2018-07-26T08:50:05.014Z,38.90
2018-07-26T08:51:08.547Z,39.00
2018-07-26T08:52:12.101Z,39.20
2018-07-26T08:53:15.604Z,39.40
2018-07-26T08:54:19.021Z,39.00
2018-07-26T08:55:22.526Z,38.80
2018-07-26T08:56:26.353Z,39.40
2018-07-26T08:57:29.995Z,38.90
2018-07-26T08:59:36.013Z,38.30
2018-07-26T09:00:39.514Z,38.90
2018-07-26T09:01:42.922Z,38.90
2018-07-26T09:02:47.271Z,38.80
2018-07-26T09:03:50.662Z,39.00
2018-07-26T09:04:54.068Z,38.70
2018-07-26T09:05:57.590Z,38.60
2018-07-26T09:07:00.975Z,39.00
2018-07-26T09:08:04.490Z,38.70
2018-07-26T09:09:11.099Z,38.70
2018-07-26T09:10:15.354Z,38.20
2018-07-26T09:11:18.786Z,38.60
2018-07-26T09:12:23.191Z,38.90
2018-07-26T09:13:26.592Z,38.90
2018-07-26T09:14:30.028Z,38.70
2018-07-26T09:16:37.340Z,37.90
2018-07-26T09:17:40.717Z,38.70
2018-07-26T09:18:44.107Z,37.80
2018-07-26T09:19:47.545Z,37.80
2018-07-26T09:20:50.946Z,37.80
2018-07-26T09:21:54.702Z,38.00
2018-07-26T09:22:58.039Z,38.30
2018-07-26T09:24:01.959Z,38.50
2018-07-26T09:25:05.520Z,38.20
2018-07-26T09:26:09.108Z,37.90
2018-07-26T09:27:13.310Z,37.90
2018-07-26T09:29:19.919Z,37.60
2018-07-26T09:30:23.360Z,38.00
2018-07-26T09:31:26.815Z,37.60
2018-07-26T09:32:30.374Z,37.50
2018-07-26T09:33:33.765Z,37.30
2018-07-26T09:34:37.593Z,37.00
2018-07-26T09:35:41.180Z,36.90
2018-07-26T09:36:44.609Z,37.40
2018-07-26T09:37:48.110Z,37.40
2018-07-26T09:38:51.471Z,36.20
2018-07-26T09:39:54.839Z,36.90
2018-07-26T09:40:58.267Z,36.30
2018-07-26T09:43:05.036Z,36.60
2018-07-26T09:45:13.014Z,36.80
2018-07-26T09:46:16.455Z,36.80
2018-07-26T09:47:20.248Z,36.90
2018-07-26T09:48:23.657Z,36.70
2018-07-26T09:49:27.102Z,36.40
2018-07-26T09:50:30.456Z,36.10
2018-07-26T09:52:38.294Z,35.60
2018-07-26T09:53:41.662Z,36.30
2018-07-26T09:54:45.096Z,36.20
2018-07-26T09:55:48.838Z,36.00
2018-07-26T09:56:52.218Z,35.30
2018-07-26T09:57:55.820Z,35.10
2018-07-26T09:58:59.127Z,35.20
2018-07-26T10:00:02.636Z,35.20
2018-07-26T10:01:11.943Z,35.20
2018-07-26T10:02:15.347Z,35.50
2018-07-26T10:03:19.125Z,35.80
2018-07-26T10:04:22.466Z,34.80
2018-07-26T10:05:25.825Z,35.10
2018-07-26T10:06:31.039Z,35.40
2018-07-26T10:07:34.363Z,35.10
2018-07-26T10:08:37.899Z,35.00
2018-07-26T10:09:41.222Z,35.10
2018-07-26T10:10:44.651Z,35.60
2018-07-26T10:11:48.137Z,35.90
2018-07-26T10:12:51.477Z,36.10
2018-07-26T10:13:55.444Z,35.70
2018-07-26T10:14:58.849Z,35.90
2018-07-26T10:16:02.220Z,36.10
2018-07-26T10:17:05.697Z,35.80
2018-07-26T10:18:09.054Z,36.20
2018-07-26T10:19:12.402Z,36.60
2018-07-26T10:20:15.812Z,36.60
2018-07-26T10:21:19.282Z,36.10
2018-07-26T10:22:22.739Z,35.60
2018-07-26T10:23:26.311Z,35.70
2018-07-26T10:24:29.651Z,35.70
2018-07-26T10:25:33.478Z,35.80
2018-07-26T10:26:36.964Z,35.60
2018-07-26T10:27:40.337Z,35.70
2018-07-26T10:28:43.719Z,35.30
2018-07-26T10:29:47.034Z,35.10
2018-07-26T10:30:50.691Z,35.00
2018-07-26T10:31:54.047Z,35.00
2018-07-26T10:32:57.454Z,35.30
2018-07-26T10:34:00.755Z,35.10
2018-07-26T10:35:04.446Z,35.30
2018-07-26T10:37:11.211Z,34.90
2018-07-26T10:38:14.603Z,34.60
2018-07-26T10:39:19.344Z,34.30
2018-07-26T10:40:22.757Z,34.30
2018-07-26T10:41:26.312Z,34.60
2018-07-26T10:42:29.707Z,34.60
2018-07-26T10:43:33.194Z,35.20
2018-07-26T10:44:37.036Z,34.70
2018-07-26T10:45:40.634Z,34.80
2018-07-26T10:46:43.976Z,34.90
2018-07-26T10:47:47.305Z,34.60
2018-07-26T10:48:51.095Z,34.70
2018-07-26T10:49:54.518Z,34.20
2018-07-26T10:50:58.202Z,34.30
2018-07-26T10:52:01.618Z,34.00
2018-07-26T10:53:05.489Z,33.60
2018-07-26T10:54:09.867Z,33.60
2018-07-26T10:55:13.332Z,33.70
2018-07-26T10:56:16.668Z,33.60
2018-07-26T10:57:20.082Z,32.80
2018-07-26T10:58:23.839Z,32.70
2018-07-26T10:59:27.558Z,33.10
2018-07-26T11:00:31.090Z,33.00
2018-07-26T11:01:34.462Z,32.90
2018-07-26T11:02:38.297Z,33.20
2018-07-26T11:03:41.738Z,33.30
2018-07-26T11:04:45.158Z,33.30
2018-07-26T11:05:48.722Z,33.40
2018-07-26T11:06:52.115Z,33.20
2018-07-26T11:07:55.578Z,33.20
2018-07-26T11:08:58.927Z,33.60
2018-07-26T11:10:02.601Z,33.30
2018-07-26T11:11:06.872Z,33.60
2018-07-26T11:12:10.215Z,33.20
2018-07-26T11:13:14.731Z,33.30
2018-07-26T11:14:19.182Z,32.80
2018-07-26T11:15:31.547Z,33.00
2018-07-26T11:16:36.709Z,32.80
2018-07-26T11:18:45.546Z,33.20
2018-07-26T11:19:50.743Z,32.80
2018-07-26T11:20:55.170Z,32.90
2018-07-26T11:21:58.552Z,32.80
2018-07-26T11:23:03.098Z,32.70
2018-07-26T11:24:06.834Z,32.80
2018-07-26T11:25:10.203Z,32.60
2018-07-26T11:26:13.890Z,33.30
2018-07-26T11:27:17.379Z,32.50
2018-07-26T11:28:21.159Z,33.00
2018-07-26T11:30:30.965Z,33.00
2018-07-26T11:31:35.547Z,32.50
2018-07-26T11:32:40.492Z,32.90
2018-07-26T11:33:45.526Z,32.60
2018-07-26T11:34:48.864Z,31.90
2018-07-26T11:35:52.835Z,32.40
2018-07-26T11:36:56.313Z,32.30
2018-07-26T11:37:59.741Z,32.50
2018-07-26T11:39:05.106Z,33.00
2018-07-26T11:40:08.664Z,32.10
2018-07-26T11:41:12.486Z,32.10
2018-07-26T11:42:15.923Z,31.90
2018-07-26T11:44:23.560Z,31.50
2018-07-26T11:45:26.968Z,31.50
2018-07-26T11:46:30.340Z,31.70
2018-07-26T11:47:33.739Z,31.60
2018-07-26T11:48:37.224Z,31.70
2018-07-26T11:49:40.804Z,32.10
2018-07-26T11:50:44.370Z,32.00
2018-07-26T11:51:47.839Z,31.90
2018-07-26T11:53:54.779Z,30.30
2018-07-26T11:54:58.356Z,30.20
2018-07-26T11:56:01.768Z,30.10
2018-07-26T11:57:05.269Z,30.30
2018-07-26T11:58:09.290Z,30.20
2018-07-26T11:59:12.760Z,30.90
2018-07-26T12:00:16.255Z,30.90
2018-07-26T12:01:19.702Z,31.00
2018-07-26T12:02:23.309Z,30.60
2018-07-26T12:03:27.345Z,30.20
2018-07-26T12:04:31.332Z,29.40
2018-07-26T12:05:35.231Z,28.90
2018-07-26T12:06:38.764Z,29.40
2018-07-26T12:07:42.223Z,29.60
2018-07-26T12:08:45.678Z,29.90
2018-07-26T12:09:49.489Z,30.10
2018-07-26T12:10:53.235Z,30.00
2018-07-26T12:11:56.929Z,30.00
2018-07-26T12:13:00.639Z,29.60
2018-07-26T12:14:04.602Z,29.70
2018-07-26T12:15:08.302Z,29.70
2018-07-26T12:16:11.910Z,29.30
2018-07-26T12:17:15.512Z,29.70
2018-07-26T12:18:20.314Z,29.90
2018-07-26T12:19:23.802Z,30.10
2018-07-26T12:20:27.433Z,30.10
2018-07-26T12:21:31.003Z,29.50
2018-07-26T12:22:35.962Z,29.20
2018-07-26T12:23:39.538Z,29.20
2018-07-26T12:24:43.928Z,29.20
2018-07-26T12:25:47.516Z,29.70
2018-07-26T12:26:51.163Z,29.90
2018-07-26T12:27:54.784Z,29.90
2018-07-26T12:28:58.218Z,29.50
2018-07-26T12:30:02.839Z,29.60
2018-07-26T12:31:07.764Z,29.90
2018-07-26T12:32:11.900Z,29.00
2018-07-26T12:33:15.493Z,28.90
2018-07-26T12:34:19.270Z,29.10
2018-07-26T12:35:22.993Z,28.30
2018-07-26T12:36:26.565Z,28.40
2018-07-26T12:37:29.959Z,28.90
2018-07-26T12:38:33.501Z,28.60
2018-07-26T12:39:36.877Z,28.90
2018-07-26T12:40:40.558Z,28.70
2018-07-26T12:41:44.187Z,28.50
2018-07-26T12:42:47.703Z,29.10
2018-07-26T12:43:51.242Z,28.80
2018-07-26T12:44:54.796Z,28.90
2018-07-26T12:45:58.327Z,28.70
2018-07-26T12:47:01.887Z,28.40
2018-07-26T12:49:09.008Z,28.80
2018-07-26T12:50:12.496Z,29.00
2018-07-26T12:51:16.006Z,29.00
2018-07-26T12:52:20.771Z,29.10
2018-07-26T12:53:24.335Z,29.30
2018-07-26T12:54:28.043Z,29.50
2018-07-26T12:55:31.697Z,29.60
2018-07-26T12:56:35.169Z,29.70
2018-07-26T12:57:38.636Z,30.00
2018-07-26T12:59:45.617Z,30.40
2018-07-26T13:01:52.705Z,30.30
2018-07-26T13:02:56.235Z,30.80
2018-07-26T13:03:59.756Z,31.20
2018-07-26T13:06:06.755Z,31.70
2018-07-26T13:07:11.633Z,32.10
2018-07-26T13:08:15.163Z,32.10
2018-07-26T13:09:19.998Z,31.50
2018-07-26T13:10:24.631Z,32.50
2018-07-26T13:11:28.168Z,31.10
2018-07-26T13:13:35.336Z,31.40
2018-07-26T13:14:39.040Z,31.30
2018-07-26T13:15:42.525Z,30.60
2018-07-26T13:18:53.296Z,31.20
2018-07-26T13:21:00.083Z,30.10
2018-07-26T13:22:03.580Z,30.00
2018-07-26T13:23:07.180Z,30.30
2018-07-26T13:24:10.583Z,30.50
2018-07-26T13:25:14.507Z,30.70
2018-07-26T13:26:18.025Z,30.80
2018-07-26T13:27:21.651Z,30.70
2018-07-26T13:28:25.134Z,30.90
2018-07-26T13:29:29.152Z,30.80
2018-07-26T13:30:32.686Z,30.70
2018-07-26T13:31:36.184Z,30.80
2018-07-26T13:32:39.973Z,31.20
2018-07-26T13:33:43.565Z,30.60
2018-07-26T13:35:50.473Z,30.60
2018-07-26T13:36:54.364Z,30.60
2018-07-26T13:37:57.941Z,31.10
2018-07-26T13:39:06.595Z,30.20
2018-07-26T13:40:12.042Z,30.20
2018-07-26T13:41:17.255Z,30.00
2018-07-26T13:42:22.483Z,30.40
2018-07-26T13:43:27.613Z,29.60
2018-07-26T13:44:32.435Z,30.00
2018-07-26T13:45:37.550Z,30.00
2018-07-26T13:46:43.198Z,30.10
2018-07-26T13:47:47.903Z,30.40
2018-07-26T13:48:53.246Z,30.20
2018-07-26T13:51:02.507Z,30.60
2018-07-26T13:52:09.645Z,29.90
2018-07-26T13:53:14.667Z,30.30
2018-07-26T13:54:18.971Z,30.10
2018-07-26T13:55:23.805Z,30.40
2018-07-26T13:56:28.810Z,30.50
2018-07-26T13:57:33.526Z,30.50
2018-07-26T13:58:39.279Z,30.30
2018-07-26T13:59:44.300Z,29.80
2018-07-26T14:00:49.636Z,29.80
2018-07-26T14:01:54.468Z,29.90
2018-07-26T14:02:59.678Z,30.00
2018-07-26T14:04:04.557Z,29.90
2018-07-26T14:05:09.711Z,29.30
2018-07-26T14:06:14.955Z,29.50
2018-07-26T14:07:20.189Z,29.20
2018-07-26T14:08:25.100Z,29.50
2018-07-26T14:09:29.712Z,29.60
2018-07-26T14:10:34.160Z,29.50
2018-07-26T14:12:43.977Z,29.90
2018-07-26T14:13:50.190Z,30.00
2018-07-26T14:14:54.361Z,30.00
2018-07-26T14:15:59.125Z,29.90
2018-07-26T14:17:03.596Z,30.00
2018-07-26T14:18:08.268Z,29.80
2018-07-26T14:19:12.586Z,29.90
2018-07-26T14:20:17.090Z,30.00
2018-07-26T14:21:21.716Z,29.90
2018-07-26T14:22:26.358Z,29.40
2018-07-26T14:23:36.421Z,28.80
2018-07-26T14:25:45.660Z,28.50
2018-07-26T14:26:50.393Z,29.10
2018-07-26T14:27:55.182Z,29.10
2018-07-26T14:29:00.561Z,29.10
2018-07-26T14:30:05.815Z,29.20
2018-07-26T14:32:13.270Z,29.40
2018-07-26T14:33:16.919Z,29.40
2018-07-26T14:34:20.321Z,29.20
2018-07-26T14:35:23.913Z,29.10
2018-07-26T14:36:27.425Z,29.00
2018-07-26T14:37:30.764Z,28.80
2018-07-26T14:38:34.748Z,28.80
2018-07-26T14:39:38.219Z,29.10
2018-07-26T14:40:41.827Z,28.70